Aral'sk, Kazakhstan
Current Conditions -  °F | °C
As of 9:00 AM on Thursday 29 Jan 2015 (Local Time) from UAOO Reporting Station
Clear Clear  
Wind Chill: -20°   Ceiling: Unl
Heat Index: -2°   Visibility: 6mi
Dew Point: -6°   Wind: 11mph
Humidity: 85%   Direction: 60°ENE
Pressure: 30.36"   Gusts: NA
Location:  46.78°N, 61.65°E
Report Text: UAOO 290400Z 06005MPS CAVOK M19/M21 Q1028 R06/CLRD70 NOSIG RMKQFE759/1012
Loading
Personal Weather Stations






























Interactive Weather Map New forecast layout! Learn more

10-Day Weather Forecast

Advertisements
Track Severe Weather on mobile